Alcova, Wyoming
Current Conditions -  °F | °C
As of 1:53 PM on Sunday 23 Nov 2014 (Local Time) from KCPR Reporting Station
Few Clouds Few Clouds  
Wind Chill: 23°   Ceiling: Unl
Heat Index: 33°   Visibility: 10mi
Dew Point: 19°   Wind: 15mph
Humidity: 56%   Direction: 300°WNW
Pressure: 29.87"   Gusts: NA
Location:  42.55°N, 106.72°W
Report Text: KCPR 232053Z 30013KT 10SM FEW085 01/M07 A2987 RMK AO2 PK WND 31030/2010 SLP139 T00061072 55001
Loading
Personal Weather Stations






























Interactive Weather Map New forecast layout! Learn more

10-Day Weather Forecast

Advertisements
Track Severe Weather on mobile